createdAt,value
2023-05-21T08:01:13.931Z,445.00
2023-05-21T08:02:13.912Z,443.00
2023-05-21T08:03:14.033Z,444.00
2023-05-21T08:04:14.086Z,446.00
2023-05-21T08:05:14.012Z,446.00
2023-05-21T08:06:13.894Z,443.00
2023-05-21T08:07:13.874Z,441.00
2023-05-21T08:08:13.908Z,440.00
2023-05-21T08:09:13.858Z,440.00
2023-05-21T08:10:13.868Z,441.00
2023-05-21T08:11:13.853Z,441.00
2023-05-21T08:12:13.844Z,443.00
2023-05-21T08:13:13.832Z,442.00
2023-05-21T08:14:13.825Z,443.00
2023-05-21T08:15:13.855Z,443.00
2023-05-21T08:16:13.820Z,443.00
2023-05-21T08:17:13.842Z,441.00
2023-05-21T08:18:13.849Z,441.00
2023-05-21T08:19:13.924Z,442.00
2023-05-21T08:20:13.820Z,445.00
2023-05-21T08:21:13.810Z,449.00
2023-05-21T08:22:13.820Z,447.00
2023-05-21T08:23:13.774Z,445.00
2023-05-21T08:24:13.784Z,444.00
2023-05-21T08:25:13.777Z,444.00
2023-05-21T08:26:13.801Z,446.00
2023-05-21T08:27:13.887Z,445.00
2023-05-21T08:28:13.907Z,447.00
2023-05-21T08:29:13.983Z,449.00
2023-05-21T08:30:14.044Z,449.00
2023-05-21T08:31:14.104Z,445.00
2023-05-21T08:32:14.352Z,445.00
2023-05-21T08:33:14.247Z,446.00
2023-05-21T08:34:14.318Z,445.00
2023-05-21T08:35:14.341Z,445.00
2023-05-21T08:36:14.475Z,443.00
2023-05-21T08:37:14.469Z,443.00
2023-05-21T08:38:14.526Z,441.00
2023-05-21T08:39:14.546Z,441.00
2023-05-21T08:40:14.638Z,439.00
2023-05-21T08:41:14.676Z,437.00
2023-05-21T08:42:22.535Z,437.00
2023-05-21T08:43:15.722Z,439.00
2023-05-21T08:44:14.710Z,441.00
2023-05-21T08:45:14.722Z,444.00
2023-05-21T08:46:14.893Z,444.00
2023-05-21T08:47:14.718Z,444.00
2023-05-21T08:48:14.686Z,445.00
2023-05-21T08:49:14.709Z,445.00
2023-05-21T08:50:14.685Z,447.00
2023-05-21T08:51:14.678Z,448.00
2023-05-21T08:52:14.748Z,446.00
2023-05-21T08:53:24.067Z,445.00
2023-05-21T08:54:15.794Z,444.00
2023-05-21T08:55:14.772Z,445.00
2023-05-21T08:56:14.778Z,444.00
2023-05-21T08:57:14.747Z,445.00
2023-05-21T08:58:14.762Z,445.00
2023-05-21T08:59:14.745Z,445.00
2023-05-21T09:00:14.732Z,443.00
2023-05-21T09:01:14.740Z,445.00
2023-05-21T09:02:14.721Z,443.00
2023-05-21T09:03:14.889Z,444.00
2023-05-21T09:04:20.926Z,443.00
2023-05-21T09:05:15.960Z,442.00
2023-05-21T09:06:14.796Z,442.00
2023-05-21T09:07:14.760Z,442.00
2023-05-21T09:08:14.770Z,442.00
2023-05-21T09:09:14.770Z,440.00
2023-05-21T09:10:14.798Z,442.00
2023-05-21T09:11:14.745Z,443.00
2023-05-21T09:12:14.753Z,441.00
2023-05-21T09:13:14.731Z,441.00
2023-05-21T09:14:14.745Z,441.00
2023-05-21T09:15:14.798Z,445.00
2023-05-21T09:16:14.864Z,447.00
2023-05-21T09:17:14.905Z,450.00
2023-05-21T09:18:15.016Z,448.00
2023-05-21T09:19:15.083Z,448.00
2023-05-21T09:20:15.193Z,447.00
2023-05-21T09:21:15.075Z,446.00
2023-05-21T09:22:15.145Z,445.00
2023-05-21T09:23:15.188Z,446.00
2023-05-21T09:24:15.211Z,445.00
2023-05-21T09:25:15.255Z,445.00
2023-05-21T09:26:15.302Z,444.00
2023-05-21T09:27:15.357Z,444.00
2023-05-21T09:28:15.432Z,447.00
2023-05-21T09:29:15.471Z,447.00
2023-05-21T09:30:15.563Z,447.00
2023-05-21T09:31:15.642Z,444.00
2023-05-21T09:32:15.596Z,443.00
2023-05-21T09:33:15.678Z,442.00
2023-05-21T09:34:15.740Z,444.00
2023-05-21T09:35:15.815Z,444.00
2023-05-21T09:36:15.821Z,445.00
2023-05-21T09:37:26.700Z,444.00
2023-05-21T09:38:16.838Z,443.00
2023-05-21T09:39:15.835Z,444.00
2023-05-21T09:40:15.816Z,443.00
2023-05-21T09:41:18.498Z,443.00
2023-05-21T09:42:16.835Z,443.00
2023-05-21T09:43:15.810Z,443.00
2023-05-21T09:44:15.854Z,443.00
2023-05-21T09:45:15.829Z,445.00
2023-05-21T09:46:15.781Z,447.00
2023-05-21T09:47:15.778Z,446.00
2023-05-21T09:48:15.762Z,443.00
2023-05-21T09:49:15.764Z,444.00
2023-05-21T09:50:15.768Z,443.00
2023-05-21T09:51:15.795Z,444.00
2023-05-21T09:52:15.764Z,444.00
2023-05-21T09:53:15.768Z,445.00
2023-05-21T09:54:15.782Z,442.00
2023-05-21T09:55:15.781Z,443.00
2023-05-21T09:56:15.819Z,443.00
2023-05-21T09:57:15.842Z,444.00
2023-05-21T09:58:15.888Z,445.00
2023-05-21T09:59:15.947Z,444.00
2023-05-21T10:00:15.980Z,446.00
2023-05-21T10:01:16.058Z,448.00
2023-05-21T10:02:16.172Z,449.00
2023-05-21T10:03:16.112Z,450.00
2023-05-21T10:04:16.146Z,449.00
2023-05-21T10:05:16.197Z,449.00
2023-05-21T10:06:16.221Z,447.00
2023-05-21T10:07:16.246Z,445.00
2023-05-21T10:08:16.305Z,442.00
2023-05-21T10:09:16.364Z,442.00
2023-05-21T10:10:16.392Z,442.00
2023-05-21T10:11:16.411Z,445.00
2023-05-21T10:12:16.432Z,449.00
2023-05-21T10:13:16.467Z,448.00
2023-05-21T10:14:16.516Z,449.00
2023-05-21T10:15:16.546Z,448.00
2023-05-21T10:16:16.653Z,447.00
2023-05-21T10:17:16.600Z,448.00
2023-05-21T10:18:16.631Z,446.00
2023-05-21T10:19:16.699Z,446.00
2023-05-21T10:20:16.745Z,445.00
2023-05-21T10:21:16.745Z,444.00
2023-05-21T10:22:16.801Z,445.00
2023-05-21T10:23:16.814Z,444.00
2023-05-21T10:24:16.875Z,445.00
2023-05-21T10:25:16.940Z,444.00
2023-05-21T10:26:16.977Z,445.00
2023-05-21T10:27:16.982Z,447.00
2023-05-21T10:28:17.016Z,446.00
2023-05-21T10:29:19.381Z,446.00
2023-05-21T10:30:17.090Z,446.00
2023-05-21T10:31:17.017Z,446.00
2023-05-21T10:32:17.146Z,447.00
2023-05-21T10:33:17.065Z,446.00
2023-05-21T10:34:16.974Z,445.00
2023-05-21T10:35:16.977Z,445.00
2023-05-21T10:36:17.024Z,444.00
2023-05-21T10:37:16.993Z,443.00
2023-05-21T10:38:16.995Z,442.00
2023-05-21T10:39:16.981Z,441.00
2023-05-21T10:40:16.984Z,440.00
2023-05-21T10:41:16.927Z,441.00
2023-05-21T10:42:16.953Z,441.00
2023-05-21T10:43:16.909Z,441.00
2023-05-21T10:44:16.959Z,442.00
2023-05-21T10:45:16.929Z,444.00
2023-05-21T10:46:16.995Z,446.00
2023-05-21T10:47:16.877Z,447.00
2023-05-21T10:48:16.945Z,443.00
2023-05-21T10:49:16.890Z,438.00
2023-05-21T10:50:16.903Z,438.00
2023-05-21T10:51:16.854Z,438.00
2023-05-21T10:52:16.873Z,436.00
2023-05-21T10:53:16.874Z,437.00
2023-05-21T10:54:16.888Z,439.00
2023-05-21T10:55:16.861Z,441.00
2023-05-21T10:56:16.840Z,443.00
2023-05-21T10:57:16.861Z,441.00
2023-05-21T10:58:16.851Z,440.00
2023-05-21T10:59:16.845Z,443.00
2023-05-21T11:00:16.810Z,444.00
2023-05-21T11:01:16.921Z,443.00
2023-05-21T11:02:16.843Z,443.00
2023-05-21T11:03:16.909Z,444.00
2023-05-21T11:04:16.814Z,446.00
2023-05-21T11:05:16.797Z,446.00
2023-05-21T11:06:16.804Z,446.00
2023-05-21T11:07:16.766Z,446.00
2023-05-21T11:08:16.770Z,448.00
2023-05-21T11:09:16.776Z,447.00
2023-05-21T11:10:16.773Z,448.00
2023-05-21T11:11:16.749Z,446.00
2023-05-21T11:12:16.745Z,445.00
2023-05-21T11:13:16.802Z,446.00
2023-05-21T11:14:16.770Z,445.00
2023-05-21T11:15:16.712Z,443.00
2023-05-21T11:16:16.714Z,443.00
2023-05-21T11:17:16.863Z,444.00
2023-05-21T11:18:16.709Z,444.00
2023-05-21T11:19:16.798Z,443.00
2023-05-21T11:20:16.751Z,443.00
2023-05-21T11:21:16.700Z,442.00
2023-05-21T11:22:16.680Z,441.00
2023-05-21T11:23:16.691Z,444.00
2023-05-21T11:24:16.683Z,443.00
2023-05-21T11:25:16.673Z,444.00
2023-05-21T11:26:16.644Z,445.00
2023-05-21T11:27:16.657Z,445.00
2023-05-21T11:28:16.659Z,447.00
2023-05-21T11:29:16.629Z,442.00
2023-05-21T11:30:16.637Z,441.00
2023-05-21T11:31:16.673Z,443.00
2023-05-21T11:32:16.621Z,445.00
2023-05-21T11:33:16.601Z,444.00
2023-05-21T11:34:16.613Z,442.00
2023-05-21T11:35:16.619Z,439.00
2023-05-21T11:36:16.606Z,441.00
2023-05-21T11:37:16.604Z,443.00
2023-05-21T11:38:16.570Z,442.00
2023-05-21T11:39:16.588Z,440.00
2023-05-21T11:40:16.573Z,442.00
2023-05-21T11:41:16.595Z,443.00
2023-05-21T11:42:16.567Z,446.00
2023-05-21T11:43:16.574Z,444.00
2023-05-21T11:44:16.555Z,442.00
2023-05-21T11:45:16.531Z,441.00
2023-05-21T11:46:16.565Z,441.00
2023-05-21T11:47:16.526Z,442.00
2023-05-21T11:48:16.500Z,443.00
2023-05-21T11:49:16.482Z,443.00
2023-05-21T11:50:16.503Z,442.00
2023-05-21T11:51:16.465Z,441.00
2023-05-21T11:52:16.512Z,441.00
2023-05-21T11:53:16.484Z,440.00
2023-05-21T11:54:16.488Z,442.00
2023-05-21T11:55:16.497Z,443.00
2023-05-21T11:56:16.457Z,445.00
2023-05-21T11:57:16.480Z,444.00
2023-05-21T11:58:16.479Z,442.00
2023-05-21T11:59:18.665Z,441.00
2023-05-21T12:00:16.525Z,439.00
2023-05-21T12:01:16.548Z,436.00
2023-05-21T12:02:16.554Z,436.00
2023-05-21T12:03:16.649Z,438.00
2023-05-21T12:04:16.539Z,437.00
2023-05-21T12:05:16.554Z,437.00
2023-05-21T12:06:16.586Z,439.00
2023-05-21T12:07:16.558Z,440.00
2023-05-21T12:08:16.557Z,439.00
2023-05-21T12:09:16.562Z,441.00
2023-05-21T12:10:16.544Z,441.00
2023-05-21T12:11:16.558Z,441.00
2023-05-21T12:12:16.544Z,441.00
2023-05-21T12:13:16.527Z,441.00
2023-05-21T12:14:16.590Z,442.00
2023-05-21T12:15:16.582Z,443.00
2023-05-21T12:16:16.565Z,444.00
2023-05-21T12:17:16.579Z,442.00
2023-05-21T12:18:16.573Z,443.00
2023-05-21T12:19:16.586Z,443.00
2023-05-21T12:20:16.631Z,442.00
2023-05-21T12:21:16.534Z,443.00
2023-05-21T12:22:16.556Z,442.00
2023-05-21T12:23:16.564Z,440.00
2023-05-21T12:24:16.539Z,440.00
2023-05-21T12:25:16.578Z,443.00
2023-05-21T12:26:16.563Z,445.00
2023-05-21T12:27:16.624Z,449.00
2023-05-21T12:28:16.547Z,451.00
2023-05-21T12:29:16.544Z,451.00
2023-05-21T12:30:16.541Z,449.00
2023-05-21T12:31:16.594Z,449.00
2023-05-21T12:32:16.568Z,449.00
2023-05-21T12:33:16.552Z,448.00
2023-05-21T12:34:16.560Z,448.00
2023-05-21T12:35:16.584Z,448.00
2023-05-21T12:36:16.561Z,445.00
2023-05-21T12:37:16.556Z,444.00
2023-05-21T12:38:16.578Z,446.00
2023-05-21T12:39:16.625Z,445.00
2023-05-21T12:40:16.675Z,445.00
2023-05-21T12:41:16.670Z,445.00
2023-05-21T12:42:16.704Z,445.00
2023-05-21T12:43:16.766Z,445.00
2023-05-21T12:44:16.779Z,445.00
2023-05-21T12:45:16.801Z,447.00
2023-05-21T12:46:16.913Z,448.00
2023-05-21T12:47:16.852Z,444.00
2023-05-21T12:48:16.929Z,443.00
2023-05-21T12:49:16.954Z,443.00
2023-05-21T12:50:16.920Z,441.00
2023-05-21T12:51:16.948Z,442.00
2023-05-21T12:52:17.001Z,442.00
2023-05-21T12:53:17.021Z,442.00
2023-05-21T12:54:17.041Z,441.00
2023-05-21T12:55:17.148Z,440.00
2023-05-21T12:56:17.120Z,439.00
2023-05-21T12:57:17.168Z,437.00
2023-05-21T12:58:17.187Z,437.00
2023-05-21T12:59:17.251Z,437.00
2023-05-21T13:00:17.289Z,437.00
